createdAt,value
2019-03-30T00:00:41.311Z,3.24
2019-03-30T00:01:41.317Z,3.33
2019-03-30T00:02:41.329Z,3.18
2019-03-30T00:03:41.332Z,3.28
2019-03-30T00:04:41.343Z,3.20
2019-03-30T00:05:41.351Z,3.23
2019-03-30T00:06:41.359Z,3.24
2019-03-30T00:07:41.368Z,3.23
2019-03-30T00:08:41.380Z,3.23
2019-03-30T00:09:41.387Z,3.24
2019-03-30T00:10:41.395Z,3.17
2019-03-30T00:11:41.402Z,3.29
2019-03-30T00:12:41.416Z,3.24
2019-03-30T00:13:41.419Z,3.29
2019-03-30T00:14:41.435Z,3.21
2019-03-30T00:15:41.437Z,3.33
2019-03-30T00:16:41.446Z,3.23
2019-03-30T00:17:41.455Z,3.18
2019-03-30T00:18:41.671Z,3.21
2019-03-30T00:19:41.482Z,3.15
2019-03-30T00:20:41.483Z,3.18
2019-03-30T00:21:41.492Z,3.14
2019-03-30T00:22:41.500Z,3.13
2019-03-30T00:23:41.508Z,3.02
2019-03-30T00:24:41.519Z,3.05
2019-03-30T00:25:41.526Z,3.03
2019-03-30T00:26:41.535Z,3.03
2019-03-30T00:27:41.548Z,2.96
2019-03-30T00:28:41.552Z,3.03
2019-03-30T00:29:41.566Z,3.00
2019-03-30T00:30:41.581Z,2.99
2019-03-30T00:31:41.584Z,3.00
2019-03-30T00:32:41.588Z,3.00
2019-03-30T00:33:41.597Z,2.99
2019-03-30T00:34:41.607Z,2.96
2019-03-30T00:35:41.615Z,2.99
2019-03-30T00:36:41.628Z,3.03
2019-03-30T00:37:41.633Z,3.00
2019-03-30T00:38:41.642Z,3.00
2019-03-30T00:39:41.650Z,3.02
2019-03-30T00:40:41.662Z,3.03
2019-03-30T00:41:41.667Z,3.02
2019-03-30T00:42:41.675Z,3.02
2019-03-30T00:43:41.681Z,3.05
2019-03-30T00:44:41.693Z,2.99
2019-03-30T00:45:41.702Z,3.10
2019-03-30T00:46:41.709Z,3.05
2019-03-30T00:47:41.719Z,3.03
2019-03-30T00:48:41.727Z,3.00
2019-03-30T00:49:49.184Z,2.96
2019-03-30T00:50:41.748Z,2.97
2019-03-30T00:51:41.754Z,3.03
2019-03-30T00:52:41.763Z,3.00
2019-03-30T00:53:41.774Z,2.97
2019-03-30T00:54:41.783Z,3.00
2019-03-30T00:55:41.789Z,3.02
2019-03-30T00:56:41.796Z,3.05
2019-03-30T00:57:41.807Z,2.99
2019-03-30T00:58:41.816Z,2.99
2019-03-30T00:59:41.823Z,2.99
2019-03-30T01:00:41.833Z,3.06
2019-03-30T01:01:41.855Z,3.05
2019-03-30T01:02:41.850Z,3.02
2019-03-30T01:03:41.867Z,3.06
2019-03-30T01:04:41.863Z,3.00
2019-03-30T01:05:41.876Z,3.02
2019-03-30T01:06:41.890Z,3.00
2019-03-30T01:07:41.888Z,3.03
2019-03-30T01:08:41.897Z,2.97
2019-03-30T01:09:41.906Z,3.03
2019-03-30T01:10:41.918Z,3.00
2019-03-30T01:11:41.926Z,2.96
2019-03-30T01:12:41.936Z,3.00
2019-03-30T01:13:41.941Z,3.03
2019-03-30T01:14:41.950Z,2.99
2019-03-30T01:15:41.960Z,2.99
2019-03-30T01:16:41.970Z,3.02
2019-03-30T01:17:41.974Z,2.99
2019-03-30T01:18:41.985Z,2.96
2019-03-30T01:19:41.996Z,2.99
2019-03-30T01:20:42.002Z,2.97
2019-03-30T01:21:42.012Z,2.96
2019-03-30T01:22:42.025Z,2.85
2019-03-30T01:23:42.029Z,2.90
2019-03-30T01:24:42.038Z,2.90
2019-03-30T01:25:42.049Z,2.87
2019-03-30T01:26:42.056Z,2.89
2019-03-30T01:27:42.082Z,2.95
2019-03-30T01:28:42.069Z,2.89
2019-03-30T01:29:42.083Z,2.85
2019-03-30T01:30:42.090Z,2.90
2019-03-30T01:31:42.095Z,2.93
2019-03-30T01:32:42.108Z,2.89
2019-03-30T01:33:42.116Z,2.90
2019-03-30T01:34:42.125Z,2.89
2019-03-30T01:35:42.137Z,2.92
2019-03-30T01:36:42.136Z,2.90
2019-03-30T01:37:42.149Z,2.75
2019-03-30T01:38:42.155Z,2.75
2019-03-30T01:39:42.162Z,2.75
2019-03-30T01:40:42.177Z,2.72
2019-03-30T01:41:42.185Z,2.77
2019-03-30T01:42:42.189Z,2.69
2019-03-30T01:43:42.197Z,2.66
2019-03-30T01:44:42.205Z,2.60
2019-03-30T01:45:42.213Z,2.57
2019-03-30T01:46:42.222Z,2.57
2019-03-30T01:47:42.229Z,2.46
2019-03-30T01:48:42.240Z,2.46
2019-03-30T01:49:42.247Z,2.41
2019-03-30T01:50:42.256Z,2.45
2019-03-30T01:51:42.261Z,2.42
2019-03-30T01:52:42.271Z,2.42
2019-03-30T01:53:42.280Z,2.35
2019-03-30T01:54:42.289Z,2.39
2019-03-30T01:55:42.309Z,2.41
2019-03-30T01:56:42.305Z,2.41
2019-03-30T01:57:42.313Z,2.42
2019-03-30T01:58:42.326Z,2.41
2019-03-30T01:59:42.335Z,2.42
2019-03-30T02:00:42.339Z,2.38
2019-03-30T02:01:42.345Z,2.43
2019-03-30T02:02:42.355Z,2.43
2019-03-30T02:03:42.361Z,2.46
2019-03-30T02:04:42.372Z,2.41
2019-03-30T02:05:42.392Z,2.43
2019-03-30T02:06:42.409Z,2.42
2019-03-30T02:07:42.398Z,2.49
2019-03-30T02:08:42.404Z,2.53
2019-03-30T02:09:42.414Z,2.42
2019-03-30T02:10:42.423Z,2.46
2019-03-30T02:11:42.431Z,2.45
2019-03-30T02:12:42.439Z,2.42
2019-03-30T02:13:42.447Z,2.46
2019-03-30T02:14:42.455Z,2.39
2019-03-30T02:15:42.458Z,2.41
2019-03-30T02:16:42.472Z,2.43
2019-03-30T02:17:42.482Z,2.42
2019-03-30T02:18:42.483Z,2.38
2019-03-30T02:19:42.495Z,2.45
2019-03-30T02:20:42.503Z,2.38
2019-03-30T02:21:42.512Z,2.41
2019-03-30T02:22:42.517Z,2.46
2019-03-30T02:23:42.527Z,2.38
2019-03-30T02:24:42.537Z,2.43
2019-03-30T02:25:42.539Z,2.48
2019-03-30T02:26:42.548Z,2.41
2019-03-30T02:27:42.556Z,2.34
2019-03-30T02:28:42.566Z,2.42
2019-03-30T02:29:42.572Z,2.39
2019-03-30T02:30:42.585Z,2.38
2019-03-30T02:31:42.594Z,2.36
2019-03-30T02:32:42.603Z,2.35
2019-03-30T02:33:42.605Z,2.36
2019-03-30T02:34:42.613Z,2.38
2019-03-30T02:35:42.626Z,2.38
2019-03-30T02:36:42.639Z,2.38
2019-03-30T02:37:42.642Z,2.38
2019-03-30T02:38:42.652Z,2.45
2019-03-30T02:39:42.658Z,2.38
2019-03-30T02:40:42.662Z,2.43
2019-03-30T02:41:42.673Z,2.48
2019-03-30T02:42:42.679Z,2.39
2019-03-30T02:43:42.686Z,2.42
2019-03-30T02:44:42.701Z,2.38
2019-03-30T02:45:42.707Z,2.39
2019-03-30T02:46:42.719Z,2.38
2019-03-30T02:47:42.717Z,2.42
2019-03-30T02:48:42.731Z,2.48
2019-03-30T02:49:42.735Z,2.42
2019-03-30T02:50:50.130Z,2.43
2019-03-30T02:51:42.854Z,2.42
2019-03-30T02:52:42.763Z,2.42
2019-03-30T02:53:42.766Z,2.42
2019-03-30T02:54:42.826Z,2.39
2019-03-30T02:55:42.794Z,2.39
2019-03-30T02:56:42.794Z,2.39
2019-03-30T02:57:42.807Z,2.30
2019-03-30T02:58:42.810Z,2.25
2019-03-30T02:59:42.819Z,2.27
2019-03-30T03:00:42.824Z,2.27
2019-03-30T03:01:42.830Z,2.31
2019-03-30T03:02:42.843Z,2.30
2019-03-30T03:03:42.849Z,2.25
2019-03-30T03:04:42.861Z,2.25
2019-03-30T03:05:42.869Z,2.25
2019-03-30T03:06:42.876Z,2.24
2019-03-30T03:07:42.886Z,2.23
2019-03-30T03:08:42.896Z,2.24
2019-03-30T03:09:42.900Z,2.27
2019-03-30T03:10:42.906Z,2.28
2019-03-30T03:11:42.914Z,2.28
2019-03-30T03:12:42.924Z,2.30
2019-03-30T03:13:42.929Z,2.28
2019-03-30T03:14:42.937Z,2.31
2019-03-30T03:15:42.942Z,2.36
2019-03-30T03:16:42.954Z,2.24
2019-03-30T03:17:42.961Z,2.27
2019-03-30T03:18:42.971Z,2.27
2019-03-30T03:19:42.984Z,2.27
2019-03-30T03:20:42.998Z,2.28
2019-03-30T03:21:42.997Z,2.28
2019-03-30T03:22:43.012Z,2.28
2019-03-30T03:23:43.009Z,2.30
2019-03-30T03:24:43.015Z,2.34
2019-03-30T03:25:43.032Z,2.30
2019-03-30T03:26:43.039Z,2.25
2019-03-30T03:27:43.042Z,2.34
2019-03-30T03:28:43.049Z,2.34
2019-03-30T03:29:43.877Z,2.25
2019-03-30T03:30:43.069Z,2.21
2019-03-30T03:31:43.086Z,2.18
2019-03-30T03:32:43.082Z,2.17
2019-03-30T03:33:43.274Z,2.17
2019-03-30T03:34:43.108Z,2.23
2019-03-30T03:35:43.109Z,2.10
2019-03-30T03:36:43.114Z,2.17
2019-03-30T03:37:46.045Z,2.16
2019-03-30T03:38:43.128Z,2.07
2019-03-30T03:39:43.139Z,2.12
2019-03-30T03:40:43.148Z,2.17
2019-03-30T03:41:43.155Z,2.18
2019-03-30T03:42:43.173Z,2.16
2019-03-30T03:43:43.168Z,2.09
2019-03-30T03:44:43.175Z,2.16
2019-03-30T03:45:43.187Z,2.12
2019-03-30T03:46:43.193Z,2.20
2019-03-30T03:47:43.203Z,2.09
2019-03-30T03:48:43.213Z,2.10
2019-03-30T03:49:43.219Z,2.21
2019-03-30T03:50:43.227Z,2.09
2019-03-30T03:51:43.240Z,2.12
2019-03-30T03:52:43.241Z,2.09
2019-03-30T03:53:43.246Z,2.17
2019-03-30T03:54:43.259Z,2.12
2019-03-30T03:55:43.277Z,2.16
2019-03-30T03:56:43.272Z,2.07
2019-03-30T03:57:43.275Z,2.09
2019-03-30T03:58:43.287Z,2.17
2019-03-30T03:59:43.297Z,2.12
2019-03-30T04:00:43.301Z,2.16
2019-03-30T04:01:43.309Z,2.05
2019-03-30T04:02:43.317Z,2.03
2019-03-30T04:03:43.332Z,2.06
2019-03-30T04:04:47.003Z,2.07
2019-03-30T04:05:43.342Z,2.00
2019-03-30T04:06:43.347Z,2.05
2019-03-30T04:07:43.357Z,2.00
2019-03-30T04:08:43.373Z,2.05
2019-03-30T04:09:43.374Z,2.02
2019-03-30T04:10:43.382Z,1.99
2019-03-30T04:11:43.387Z,2.02
2019-03-30T04:12:43.392Z,2.00
2019-03-30T04:13:43.397Z,2.00
2019-03-30T04:14:43.409Z,1.98
2019-03-30T04:15:43.453Z,2.07
2019-03-30T04:16:43.425Z,1.95
2019-03-30T04:17:43.431Z,2.03
2019-03-30T04:18:47.703Z,2.02
2019-03-30T04:19:43.445Z,2.03
2019-03-30T04:20:43.459Z,2.00
2019-03-30T04:21:44.799Z,1.93
2019-03-30T04:22:43.470Z,1.90
2019-03-30T04:23:43.570Z,1.87
2019-03-30T04:24:43.487Z,1.95
2019-03-30T04:25:43.493Z,1.81
2019-03-30T04:26:43.499Z,1.84
2019-03-30T04:27:43.519Z,2.00
2019-03-30T04:28:43.516Z,1.86
2019-03-30T04:29:43.520Z,1.88
2019-03-30T04:30:43.526Z,1.99
2019-03-30T04:31:43.536Z,1.98
2019-03-30T04:32:43.547Z,1.98
2019-03-30T04:33:43.550Z,2.00
2019-03-30T04:34:43.563Z,1.90
2019-03-30T04:35:43.567Z,1.90
2019-03-30T04:36:43.577Z,1.87
2019-03-30T04:37:43.584Z,1.99
2019-03-30T04:38:43.587Z,1.84
2019-03-30T04:39:43.594Z,1.84
2019-03-30T04:40:43.612Z,1.87
2019-03-30T04:41:43.613Z,1.87
2019-03-30T04:42:43.620Z,1.99
2019-03-30T04:43:43.628Z,1.99
2019-03-30T04:44:43.642Z,1.84
2019-03-30T04:45:43.654Z,1.83
2019-03-30T04:46:43.654Z,1.83
2019-03-30T04:47:43.657Z,1.87
2019-03-30T04:48:43.672Z,1.83
2019-03-30T04:49:43.673Z,1.88
2019-03-30T04:50:43.680Z,1.90
2019-03-30T04:51:56.549Z,1.93
2019-03-30T04:52:43.694Z,1.93
2019-03-30T04:53:43.722Z,1.91
2019-03-30T04:54:43.718Z,1.87
2019-03-30T04:55:43.716Z,1.81
2019-03-30T04:56:43.721Z,1.90
2019-03-30T04:57:43.733Z,1.93
2019-03-30T04:58:43.738Z,1.84
2019-03-30T04:59:43.748Z,1.88
2019-03-30T05:00:43.755Z,1.87
2019-03-30T05:01:43.760Z,1.83
2019-03-30T05:02:43.783Z,1.83
2019-03-30T05:03:43.777Z,1.87
2019-03-30T05:04:43.785Z,1.93
2019-03-30T05:05:43.792Z,1.90
2019-03-30T05:06:43.797Z,1.86
2019-03-30T05:07:43.807Z,1.87
2019-03-30T05:08:43.813Z,1.93
2019-03-30T05:09:43.822Z,1.91
2019-03-30T05:10:43.830Z,1.86
2019-03-30T05:11:43.837Z,1.81
2019-03-30T05:12:43.841Z,1.87
2019-03-30T05:13:43.855Z,1.81
2019-03-30T05:14:43.856Z,1.83
2019-03-30T05:15:43.865Z,1.88
2019-03-30T05:16:43.871Z,1.87
2019-03-30T05:17:47.404Z,1.87
2019-03-30T05:18:43.889Z,1.83
2019-03-30T05:19:43.895Z,1.81
2019-03-30T05:20:43.904Z,1.84
2019-03-30T05:21:43.910Z,1.86
2019-03-30T05:22:43.920Z,1.84
2019-03-30T05:23:43.927Z,1.80
2019-03-30T05:24:43.933Z,1.77
2019-03-30T05:25:43.939Z,1.84
2019-03-30T05:26:43.951Z,1.86
2019-03-30T05:27:43.955Z,1.86
2019-03-30T05:28:43.960Z,1.81
2019-03-30T05:29:43.968Z,1.86
2019-03-30T05:30:43.980Z,1.81
2019-03-30T05:31:43.984Z,1.88
2019-03-30T05:32:43.991Z,1.81
2019-03-30T05:33:44.005Z,1.83
2019-03-30T05:34:44.010Z,1.80
2019-03-30T05:35:44.015Z,1.86
2019-03-30T05:36:44.025Z,1.87
2019-03-30T05:37:44.029Z,1.81
2019-03-30T05:38:44.036Z,1.91
2019-03-30T05:39:44.044Z,1.93
2019-03-30T05:40:44.055Z,1.83
2019-03-30T05:41:44.060Z,1.93
2019-03-30T05:42:44.069Z,1.99
2019-03-30T05:43:44.077Z,1.83
2019-03-30T05:44:44.084Z,1.88
2019-03-30T05:45:44.095Z,1.91
2019-03-30T05:46:44.097Z,2.02
2019-03-30T05:47:44.108Z,2.06
2019-03-30T05:48:44.122Z,2.07
2019-03-30T05:49:44.124Z,2.07
2019-03-30T05:50:44.130Z,2.02
2019-03-30T05:51:44.138Z,2.03
2019-03-30T05:52:44.145Z,2.09
2019-03-30T05:53:44.154Z,2.03
2019-03-30T05:54:44.156Z,2.06
2019-03-30T05:55:44.166Z,2.09
2019-03-30T05:56:44.172Z,2.07
2019-03-30T05:57:44.184Z,2.02
2019-03-30T05:58:44.198Z,2.02
2019-03-30T05:59:44.195Z,1.98
2019-03-30T06:00:44.208Z,1.99
2019-03-30T06:01:44.211Z,2.07
2019-03-30T06:02:44.221Z,2.06
2019-03-30T06:03:44.225Z,1.98
2019-03-30T06:04:44.243Z,2.03
2019-03-30T06:05:44.247Z,2.00
2019-03-30T06:06:44.253Z,1.99
2019-03-30T06:07:44.258Z,2.02
2019-03-30T06:08:44.264Z,2.00
2019-03-30T06:09:44.276Z,2.02
2019-03-30T06:10:44.291Z,1.99
2019-03-30T06:11:44.287Z,2.05
2019-03-30T06:12:44.301Z,2.02
2019-03-30T06:13:44.304Z,2.02
2019-03-30T06:14:44.314Z,2.12
2019-03-30T06:15:44.324Z,2.06
2019-03-30T06:16:44.329Z,2.00
2019-03-30T06:17:44.334Z,2.12
2019-03-30T06:18:44.342Z,2.00
2019-03-30T06:19:44.348Z,2.03
2019-03-30T06:20:44.361Z,2.03
2019-03-30T06:21:44.370Z,2.07
2019-03-30T06:22:44.377Z,2.03
2019-03-30T06:23:44.379Z,2.03
2019-03-30T06:24:44.397Z,2.06
2019-03-30T06:25:44.395Z,2.05
2019-03-30T06:26:44.408Z,2.06
2019-03-30T06:27:44.410Z,2.10
2019-03-30T06:28:44.422Z,2.17
2019-03-30T06:29:44.426Z,2.14
2019-03-30T06:30:44.436Z,2.14
2019-03-30T06:31:46.787Z,2.18
2019-03-30T06:32:44.452Z,2.14
2019-03-30T06:33:44.456Z,2.17
2019-03-30T06:34:44.467Z,2.09
2019-03-30T06:35:44.473Z,2.16
2019-03-30T06:36:44.485Z,2.17
2019-03-30T06:37:44.488Z,2.16
2019-03-30T06:38:44.499Z,2.18
2019-03-30T06:39:44.503Z,2.09
2019-03-30T06:40:44.544Z,2.16
2019-03-30T06:41:44.522Z,2.20
2019-03-30T06:42:44.528Z,2.16
2019-03-30T06:43:44.534Z,2.18
2019-03-30T06:44:44.541Z,2.24
2019-03-30T06:45:44.551Z,2.28
2019-03-30T06:46:44.561Z,2.45
2019-03-30T06:47:44.564Z,2.48
2019-03-30T06:48:44.576Z,2.48
2019-03-30T06:49:44.582Z,2.60
2019-03-30T06:50:44.594Z,2.54
2019-03-30T06:51:44.601Z,2.71
2019-03-30T06:52:56.722Z,2.63
2019-03-30T06:53:44.611Z,2.75
2019-03-30T06:54:44.630Z,2.75
2019-03-30T06:55:44.625Z,2.89
2019-03-30T06:56:44.704Z,2.84
2019-03-30T06:57:44.643Z,2.87
2019-03-30T06:58:44.653Z,3.03
2019-03-30T06:59:44.661Z,3.03
2019-03-30T07:00:44.666Z,3.02
2019-03-30T07:01:44.676Z,3.11
2019-03-30T07:02:44.686Z,3.29
2019-03-30T07:03:44.688Z,3.26
2019-03-30T07:04:44.701Z,3.42
2019-03-30T07:05:44.707Z,3.48
2019-03-30T07:06:44.714Z,3.55
2019-03-30T07:07:44.728Z,3.62
2019-03-30T07:08:44.731Z,3.73
2019-03-30T07:09:44.742Z,3.83
2019-03-30T07:10:44.747Z,3.94
2019-03-30T07:11:44.757Z,4.11
2019-03-30T07:12:44.766Z,4.08
2019-03-30T07:13:44.774Z,4.08
2019-03-30T07:14:44.784Z,4.34
2019-03-30T07:15:44.785Z,4.48
2019-03-30T07:16:44.795Z,4.51
2019-03-30T07:17:44.809Z,4.78
2019-03-30T07:18:44.811Z,4.77
2019-03-30T07:19:44.818Z,4.82
2019-03-30T07:20:44.828Z,4.78
2019-03-30T07:21:44.840Z,4.85
2019-03-30T07:22:44.849Z,4.80
2019-03-30T07:23:44.851Z,4.80
2019-03-30T07:24:44.863Z,4.86
2019-03-30T07:25:44.881Z,4.88
2019-03-30T07:26:44.881Z,4.85
2019-03-30T07:27:44.885Z,4.86
2019-03-30T07:28:47.141Z,4.72
2019-03-30T07:29:44.902Z,4.69
2019-03-30T07:30:44.987Z,4.60
2019-03-30T07:31:44.920Z,4.65
2019-03-30T07:32:44.934Z,4.69
2019-03-30T07:33:44.942Z,4.66
2019-03-30T07:34:44.955Z,4.70
2019-03-30T07:35:44.959Z,4.82
2019-03-30T07:36:44.962Z,4.78
2019-03-30T07:37:45.002Z,4.86
2019-03-30T07:38:44.981Z,4.99
2019-03-30T07:39:44.992Z,4.89
2019-03-30T07:40:44.996Z,4.82
2019-03-30T07:41:45.013Z,4.99
2019-03-30T07:42:45.017Z,4.99
2019-03-30T07:43:45.024Z,5.07
2019-03-30T07:44:45.035Z,5.09
2019-03-30T07:45:45.041Z,5.22
2019-03-30T07:46:45.048Z,5.24
2019-03-30T07:47:45.057Z,5.33
2019-03-30T07:48:45.071Z,5.38
2019-03-30T07:49:45.077Z,5.33
2019-03-30T07:50:45.089Z,5.17
2019-03-30T07:51:45.091Z,5.13
2019-03-30T07:52:45.104Z,5.15
2019-03-30T07:53:45.224Z,5.24
2019-03-30T07:54:45.190Z,5.25
2019-03-30T07:55:45.127Z,5.22
2019-03-30T07:56:45.142Z,5.18
2019-03-30T07:57:45.149Z,5.24
2019-03-30T07:58:45.151Z,5.33
2019-03-30T07:59:45.158Z,5.31
2019-03-30T08:00:45.170Z,5.36
2019-03-30T08:01:45.177Z,5.40
2019-03-30T08:02:45.185Z,5.35
2019-03-30T08:03:45.194Z,5.33
2019-03-30T08:04:45.203Z,5.28
2019-03-30T08:05:45.214Z,5.25
2019-03-30T08:06:45.220Z,5.35
2019-03-30T08:07:45.234Z,5.40
2019-03-30T08:08:45.241Z,5.61
2019-03-30T08:09:45.252Z,5.74
2019-03-30T08:10:45.262Z,5.67
2019-03-30T08:11:45.270Z,5.72
2019-03-30T08:12:45.274Z,5.78
2019-03-30T08:13:45.283Z,5.58
2019-03-30T08:14:45.412Z,5.91
2019-03-30T08:15:45.302Z,6.04
2019-03-30T08:16:45.313Z,6.22
2019-03-30T08:17:45.317Z,6.64
2019-03-30T08:18:45.333Z,6.58
2019-03-30T08:19:45.338Z,6.51
2019-03-30T08:20:45.347Z,6.49
2019-03-30T08:21:45.356Z,6.52
2019-03-30T08:22:45.367Z,6.66
2019-03-30T08:23:45.370Z,6.67
2019-03-30T08:24:45.387Z,6.77
2019-03-30T08:25:45.393Z,6.89
2019-03-30T08:26:45.402Z,7.02
2019-03-30T08:27:45.413Z,6.98
2019-03-30T08:28:45.423Z,7.21
2019-03-30T08:29:45.428Z,7.10
2019-03-30T08:30:45.437Z,6.89
2019-03-30T08:31:45.450Z,6.99
2019-03-30T08:32:45.460Z,6.98
2019-03-30T08:33:45.466Z,7.02
2019-03-30T08:34:45.480Z,6.92
2019-03-30T08:35:45.493Z,6.87
2019-03-30T08:36:45.494Z,6.66
2019-03-30T08:37:45.505Z,6.70
2019-03-30T08:38:45.514Z,6.52
2019-03-30T08:39:45.523Z,6.34
2019-03-30T08:40:45.533Z,6.55
2019-03-30T08:41:45.547Z,6.64
2019-03-30T08:42:45.559Z,6.56
2019-03-30T08:43:45.564Z,6.84
2019-03-30T08:44:45.574Z,6.92
2019-03-30T08:45:48.761Z,7.03
2019-03-30T08:46:45.598Z,7.12
2019-03-30T08:47:45.605Z,7.10
2019-03-30T08:48:45.614Z,7.05
2019-03-30T08:49:45.630Z,7.15
2019-03-30T08:50:45.635Z,6.98
2019-03-30T08:51:45.647Z,6.92
2019-03-30T08:52:45.652Z,6.95
2019-03-30T08:53:54.409Z,7.27
2019-03-30T08:54:45.672Z,7.43
2019-03-30T08:55:45.684Z,7.31
2019-03-30T08:56:45.692Z,7.42
2019-03-30T08:57:45.729Z,7.48
2019-03-30T08:58:45.725Z,7.27
2019-03-30T08:59:45.726Z,7.71
2019-03-30T09:00:45.739Z,7.68
2019-03-30T09:01:45.748Z,7.50
2019-03-30T09:02:45.757Z,7.58
2019-03-30T09:03:45.766Z,7.28
2019-03-30T09:04:45.777Z,7.25
2019-03-30T09:05:45.785Z,7.89
2019-03-30T09:06:45.796Z,7.87
2019-03-30T09:07:45.805Z,8.20
2019-03-30T09:08:45.819Z,7.25
2019-03-30T09:09:45.826Z,7.48
2019-03-30T09:10:45.834Z,7.32
2019-03-30T09:11:45.851Z,7.53
2019-03-30T09:12:45.859Z,7.61
2019-03-30T09:13:45.868Z,7.52
2019-03-30T09:14:45.880Z,7.60
2019-03-30T09:15:45.895Z,7.93
2019-03-30T09:16:45.901Z,7.67
2019-03-30T09:17:45.910Z,7.82
2019-03-30T09:18:45.921Z,7.95
2019-03-30T09:19:45.931Z,8.00
2019-03-30T09:20:45.942Z,8.04
2019-03-30T09:21:45.949Z,7.61
2019-03-30T09:22:45.967Z,7.71
2019-03-30T09:23:45.969Z,8.15
2019-03-30T09:24:45.980Z,8.05
2019-03-30T09:25:45.995Z,7.97
2019-03-30T09:26:46.005Z,7.87
2019-03-30T09:27:46.039Z,7.98
2019-03-30T09:28:46.026Z,8.23
2019-03-30T09:29:46.038Z,8.40
2019-03-30T09:30:46.047Z,8.63
2019-03-30T09:31:46.068Z,8.41
2019-03-30T09:32:46.067Z,8.61
2019-03-30T09:33:46.079Z,8.41
2019-03-30T09:34:46.087Z,7.77
2019-03-30T09:35:46.100Z,8.16
2019-03-30T09:36:46.157Z,8.44
2019-03-30T09:37:46.120Z,8.63
2019-03-30T09:38:46.134Z,9.04
2019-03-30T09:39:46.144Z,8.66
2019-03-30T09:40:46.153Z,8.80
2019-03-30T09:41:46.167Z,8.61
2019-03-30T09:42:46.178Z,9.23
2019-03-30T09:43:46.183Z,8.48
2019-03-30T09:44:46.199Z,8.71
2019-03-30T09:45:46.211Z,9.01
2019-03-30T09:46:46.223Z,9.08
2019-03-30T09:47:46.232Z,9.20
2019-03-30T09:48:46.242Z,8.99
2019-03-30T09:49:46.255Z,9.21
2019-03-30T09:50:46.269Z,9.32
2019-03-30T09:51:46.277Z,9.56
2019-03-30T09:52:46.288Z,9.46
2019-03-30T09:53:46.305Z,9.47
2019-03-30T09:54:46.310Z,9.05
2019-03-30T09:55:46.325Z,9.57
2019-03-30T09:56:46.337Z,9.20
2019-03-30T09:57:46.350Z,9.21
2019-03-30T09:58:46.361Z,9.39
2019-03-30T09:59:46.369Z,9.61
2019-03-30T10:00:46.380Z,9.94
2019-03-30T10:01:46.393Z,10.20
2019-03-30T10:02:46.406Z,10.14
2019-03-30T10:03:46.421Z,10.18
2019-03-30T10:04:46.429Z,9.81
2019-03-30T10:05:46.442Z,10.12
2019-03-30T10:06:46.458Z,10.63
2019-03-30T10:07:46.471Z,10.71
2019-03-30T10:08:46.479Z,10.79
2019-03-30T10:09:47.403Z,10.97
2019-03-30T10:10:46.505Z,10.94
2019-03-30T10:11:46.520Z,11.02
2019-03-30T10:12:46.531Z,10.30
2019-03-30T10:13:46.540Z,9.71
2019-03-30T10:14:46.558Z,9.65
2019-03-30T10:15:46.569Z,9.64
2019-03-30T10:16:48.769Z,10.15
2019-03-30T10:17:46.598Z,10.27
2019-03-30T10:18:46.606Z,10.55
2019-03-30T10:19:53.062Z,10.64
2019-03-30T10:20:46.635Z,10.36
2019-03-30T10:21:46.648Z,9.94
2019-03-30T10:22:46.657Z,10.20
2019-03-30T10:23:46.673Z,10.86
2019-03-30T10:24:46.685Z,10.48
2019-03-30T10:25:46.696Z,10.74
2019-03-30T10:26:46.713Z,10.34
2019-03-30T10:27:46.720Z,10.08
2019-03-30T10:28:47.193Z,10.30
2019-03-30T10:29:46.752Z,10.12
2019-03-30T10:30:46.763Z,9.89
2019-03-30T10:31:46.776Z,10.11
2019-03-30T10:32:46.786Z,9.74
2019-03-30T10:33:46.810Z,10.30
2019-03-30T10:34:46.817Z,10.36
2019-03-30T10:35:46.830Z,10.30
2019-03-30T10:36:46.838Z,10.15
2019-03-30T10:37:46.852Z,9.84
2019-03-30T10:38:46.870Z,10.08
2019-03-30T10:39:46.882Z,10.52
2019-03-30T10:40:46.896Z,10.45
2019-03-30T10:41:46.908Z,10.73
2019-03-30T10:42:46.917Z,10.76
2019-03-30T10:43:46.936Z,10.91
2019-03-30T10:44:46.951Z,10.63
2019-03-30T10:45:46.963Z,10.51
2019-03-30T10:46:46.971Z,10.53
2019-03-30T10:47:46.988Z,10.64
2019-03-30T10:48:46.999Z,11.02
2019-03-30T10:49:47.108Z,10.91
2019-03-30T10:50:47.028Z,11.14
2019-03-30T10:51:47.043Z,11.49
2019-03-30T10:52:47.053Z,11.91
2019-03-30T10:53:47.066Z,11.99
2019-03-30T10:54:52.997Z,12.20
2019-03-30T10:55:47.092Z,12.01
2019-03-30T10:56:47.119Z,12.05
2019-03-30T10:57:47.124Z,11.07
2019-03-30T10:58:47.137Z,11.47
2019-03-30T10:59:47.154Z,11.35
2019-03-30T11:00:47.167Z,11.86
2019-03-30T11:01:47.182Z,12.19
2019-03-30T11:02:47.193Z,12.37
2019-03-30T11:03:47.206Z,12.28
2019-03-30T11:04:47.223Z,11.86
2019-03-30T11:05:47.235Z,11.95
2019-03-30T11:06:47.250Z,11.36
2019-03-30T11:07:47.259Z,11.44
2019-03-30T11:08:47.274Z,11.72
2019-03-30T11:09:49.542Z,11.73
2019-03-30T11:10:47.304Z,12.01
2019-03-30T11:11:47.319Z,11.44
2019-03-30T11:12:47.333Z,11.88
2019-03-30T11:13:47.348Z,11.27
2019-03-30T11:14:47.364Z,11.90
2019-03-30T11:15:47.374Z,12.17
2019-03-30T11:16:47.391Z,11.80
2019-03-30T11:17:47.402Z,11.65
2019-03-30T11:18:47.417Z,11.95
2019-03-30T11:19:47.429Z,11.95
2019-03-30T11:20:47.443Z,12.56
2019-03-30T11:21:47.457Z,13.11
2019-03-30T11:22:47.477Z,12.82
2019-03-30T11:23:47.487Z,11.29
2019-03-30T11:24:47.500Z,11.52
2019-03-30T11:25:47.523Z,11.85
2019-03-30T11:26:47.534Z,11.99
2019-03-30T11:27:47.544Z,12.54
2019-03-30T11:28:47.562Z,12.53
2019-03-30T11:29:47.575Z,12.67
2019-03-30T11:30:47.591Z,13.01
2019-03-30T11:31:47.604Z,12.72
2019-03-30T11:32:47.620Z,13.05
2019-03-30T11:33:47.635Z,13.26
2019-03-30T11:34:47.652Z,13.00
2019-03-30T11:35:47.660Z,13.22
2019-03-30T11:36:47.679Z,13.20
2019-03-30T11:37:47.693Z,12.96
2019-03-30T11:38:47.705Z,12.53
2019-03-30T11:39:47.723Z,11.82
2019-03-30T11:40:47.743Z,11.44
2019-03-30T11:41:47.748Z,11.55
2019-03-30T11:42:47.767Z,12.32
2019-03-30T11:43:47.782Z,12.67
2019-03-30T11:44:47.799Z,12.74
2019-03-30T11:45:47.813Z,12.29
2019-03-30T11:46:47.829Z,12.01
2019-03-30T11:47:47.845Z,11.43
2019-03-30T11:48:47.853Z,11.62
2019-03-30T11:49:47.876Z,12.05
2019-03-30T11:50:47.894Z,12.54
2019-03-30T11:51:47.898Z,12.87
2019-03-30T11:52:47.913Z,12.45
2019-03-30T11:53:47.932Z,12.70
2019-03-30T11:54:47.943Z,12.82
2019-03-30T11:55:47.960Z,12.42
2019-03-30T11:56:47.976Z,11.94
2019-03-30T11:57:47.991Z,12.04
2019-03-30T11:58:48.002Z,11.98
2019-03-30T11:59:48.025Z,12.23
2019-03-30T12:00:48.035Z,12.46
2019-03-30T12:01:48.053Z,13.11
2019-03-30T12:02:48.063Z,13.29
2019-03-30T12:03:48.081Z,13.46
2019-03-30T12:04:48.095Z,12.85
2019-03-30T12:05:48.109Z,13.33
2019-03-30T12:06:51.598Z,13.33
2019-03-30T12:07:48.226Z,12.13
2019-03-30T12:08:48.159Z,10.96
2019-03-30T12:09:48.174Z,11.80
2019-03-30T12:10:48.261Z,12.45
2019-03-30T12:11:48.202Z,11.94
2019-03-30T12:12:48.218Z,12.46
2019-03-30T12:13:48.232Z,12.67
2019-03-30T12:14:48.248Z,13.19
2019-03-30T12:15:48.259Z,13.79
2019-03-30T12:16:48.281Z,13.32
2019-03-30T12:17:48.293Z,12.67
2019-03-30T12:18:48.304Z,12.90
2019-03-30T12:19:48.322Z,13.41
2019-03-30T12:20:48.340Z,13.30
2019-03-30T12:21:48.351Z,13.08
2019-03-30T12:22:48.370Z,12.72
2019-03-30T12:23:48.388Z,13.23
2019-03-30T12:24:48.396Z,13.28
2019-03-30T12:25:48.414Z,12.82
2019-03-30T12:26:48.431Z,13.00
2019-03-30T12:27:48.444Z,12.38
2019-03-30T12:28:48.459Z,12.41
2019-03-30T12:29:48.477Z,12.39
2019-03-30T12:30:48.491Z,11.55
2019-03-30T12:31:48.509Z,11.99
2019-03-30T12:32:48.521Z,12.62
2019-03-30T12:33:48.534Z,13.26
2019-03-30T12:34:48.552Z,13.11
2019-03-30T12:35:48.569Z,12.47
2019-03-30T12:36:48.581Z,12.90
2019-03-30T12:37:48.595Z,13.44
2019-03-30T12:38:48.614Z,14.09
2019-03-30T12:39:48.631Z,13.78
2019-03-30T12:40:48.641Z,13.67
2019-03-30T12:41:48.657Z,14.03
2019-03-30T12:42:48.672Z,13.91
2019-03-30T12:43:48.689Z,14.07
2019-03-30T12:44:48.704Z,14.27
2019-03-30T12:45:48.723Z,14.40
2019-03-30T12:46:48.736Z,12.93
2019-03-30T12:47:48.752Z,12.65
2019-03-30T12:48:48.766Z,13.23
2019-03-30T12:49:48.783Z,13.11
2019-03-30T12:50:48.799Z,13.89
2019-03-30T12:51:48.814Z,14.02
2019-03-30T12:52:48.832Z,13.79
2019-03-30T12:53:50.530Z,13.64
2019-03-30T12:54:48.864Z,13.39
2019-03-30T12:55:49.771Z,13.97
2019-03-30T12:56:48.899Z,14.25
2019-03-30T12:57:48.915Z,14.70
2019-03-30T12:58:48.931Z,13.87
2019-03-30T12:59:48.955Z,12.57
2019-03-30T13:00:48.964Z,12.64
2019-03-30T13:01:48.989Z,13.30
2019-03-30T13:02:49.002Z,13.89
2019-03-30T13:03:49.012Z,13.54
2019-03-30T13:04:49.026Z,12.54
2019-03-30T13:05:49.045Z,12.67
2019-03-30T13:06:49.060Z,13.10
2019-03-30T13:07:49.075Z,12.89
2019-03-30T13:08:49.092Z,12.90
2019-03-30T13:09:49.128Z,13.07
2019-03-30T13:10:49.133Z,13.19
2019-03-30T13:11:49.139Z,13.08
2019-03-30T13:12:49.159Z,13.30